sensor_id;sensor_type;location;lat;lon;timestamp;noise_LAeq;noise_LA_min;noise_LA_max;noise_LA01;noise_LA95
69608;Laerm;57251;52.248;4.812;2023-04-25T00:00:02;35.51;33.09;38.34;;
69608;Laerm;57251;52.248;4.812;2023-04-25T00:00:13;35.13;33.33;38.24;;
69608;Laerm;57251;52.248;4.812;2023-04-25T00:00:24;34.74;32.86;36.46;;
69608;Laerm;57251;52.248;4.812;2023-04-25T00:00:35;35.36;33.31;41.48;;
69608;Laerm;57251;52.248;4.812;2023-04-25T00:00:45;35.17;33.16;37.68;;
69608;Laerm;57251;52.248;4.812;2023-04-25T00:00:55;34.84;32.58;37.45;;
69608;Laerm;57251;52.248;4.812;2023-04-25T00:01:06;34.74;32.81;36.30;;
69608;Laerm;57251;52.248;4.812;2023-04-25T00:01:16;34.28;32.77;36.09;;
69608;Laerm;57251;52.248;4.812;2023-04-25T00:01:26;34.64;32.59;37.77;;
69608;Laerm;57251;52.248;4.812;2023-04-25T00:01:37;34.27;32.72;36.52;;
69608;Laerm;57251;52.248;4.812;2023-04-25T00:01:48;34.59;32.56;36.32;;
69608;Laerm;57251;52.248;4.812;2023-04-25T00:01:58;34.40;32.64;36.56;;
69608;Laerm;57251;52.248;4.812;2023-04-25T00:02:09;34.00;32.10;35.63;;
69608;Laerm;57251;52.248;4.812;2023-04-25T00:02:20;33.78;31.91;35.30;;
69608;Laerm;57251;52.248;4.812;2023-04-25T00:02:30;34.73;32.62;36.59;;
69608;Laerm;57251;52.248;4.812;2023-04-25T00:02:41;34.51;32.97;36.07;;
69608;Laerm;57251;52.248;4.812;2023-04-25T00:02:52;34.41;32.41;36.74;;
69608;Laerm;57251;52.248;4.812;2023-04-25T00:03:02;34.25;32.40;36.23;;
69608;Laerm;57251;52.248;4.812;2023-04-25T00:03:13;34.80;32.31;38.03;;
69608;Laerm;57251;52.248;4.812;2023-04-25T00:03:23;35.86;32.93;39.11;;
69608;Laerm;57251;52.248;4.812;2023-04-25T00:03:35;36.89;33.89;41.84;;
69608;Laerm;57251;52.248;4.812;2023-04-25T00:03:45;36.36;33.12;40.24;;
69608;Laerm;57251;52.248;4.812;2023-04-25T00:03:56;35.77;33.33;38.61;;
69608;Laerm;57251;52.248;4.812;2023-04-25T00:04:07;35.25;32.93;37.36;;
69608;Laerm;57251;52.248;4.812;2023-04-25T00:04:17;35.45;33.69;39.81;;
69608;Laerm;57251;52.248;4.812;2023-04-25T00:04:27;35.48;33.09;37.24;;
69608;Laerm;57251;52.248;4.812;2023-04-25T00:04:39;35.10;32.95;37.09;;
69608;Laerm;57251;52.248;4.812;2023-04-25T00:04:49;35.15;33.22;37.06;;
69608;Laerm;57251;52.248;4.812;2023-04-25T00:05:00;34.92;32.91;36.67;;
69608;Laerm;57251;52.248;4.812;2023-04-25T00:05:12;35.11;33.20;36.95;;
69608;Laerm;57251;52.248;4.812;2023-04-25T00:05:25;35.48;33.63;37.82;;
69608;Laerm;57251;52.248;4.812;2023-04-25T00:05:36;35.77;33.54;38.79;;
69608;Laerm;57251;52.248;4.812;2023-04-25T00:05:47;35.54;33.12;38.04;;
69608;Laerm;57251;52.248;4.812;2023-04-25T00:05:58;36.22;34.33;38.29;;
69608;Laerm;57251;52.248;4.812;2023-04-25T00:06:11;35.88;33.86;38.16;;
69608;Laerm;57251;52.248;4.812;2023-04-25T00:06:22;35.59;33.55;37.92;;
69608;Laerm;57251;52.248;4.812;2023-04-25T00:06:36;35.28;33.58;37.17;;
69608;Laerm;57251;52.248;4.812;2023-04-25T00:06:46;35.02;33.56;37.44;;
69608;Laerm;57251;52.248;4.812;2023-04-25T00:06:57;35.53;33.65;38.41;;
69608;Laerm;57251;52.248;4.812;2023-04-25T00:07:07;35.50;33.42;37.52;;
69608;Laerm;57251;52.248;4.812;2023-04-25T00:07:17;34.83;33.20;36.55;;
69608;Laerm;57251;52.248;4.812;2023-04-25T00:07:28;35.32;33.18;39.32;;
69608;Laerm;57251;52.248;4.812;2023-04-25T00:07:38;35.21;33.26;37.38;;
69608;Laerm;57251;52.248;4.812;2023-04-25T00:07:49;35.95;33.70;37.96;;
69608;Laerm;57251;52.248;4.812;2023-04-25T00:07:59;35.77;33.08;44.63;;
69608;Laerm;57251;52.248;4.812;2023-04-25T00:08:10;35.49;33.31;41.45;;
69608;Laerm;57251;52.248;4.812;2023-04-25T00:08:20;35.49;33.21;43.14;;
69608;Laerm;57251;52.248;4.812;2023-04-25T00:08:30;36.13;33.85;43.24;;
69608;Laerm;57251;52.248;4.812;2023-04-25T00:08:41;35.71;33.47;43.66;;
69608;Laerm;57251;52.248;4.812;2023-04-25T00:08:51;34.86;33.02;41.18;;
69608;Laerm;57251;52.248;4.812;2023-04-25T00:09:02;34.73;33.02;38.13;;
69608;Laerm;57251;52.248;4.812;2023-04-25T00:09:13;34.61;32.60;36.77;;
69608;Laerm;57251;52.248;4.812;2023-04-25T00:09:23;34.60;32.28;38.39;;
69608;Laerm;57251;52.248;4.812;2023-04-25T00:09:33;35.15;33.51;43.24;;
69608;Laerm;57251;52.248;4.812;2023-04-25T00:09:44;35.51;33.21;40.21;;
69608;Laerm;57251;52.248;4.812;2023-04-25T00:09:54;36.07;33.80;40.43;;
69608;Laerm;57251;52.248;4.812;2023-04-25T00:10:05;35.36;33.10;37.43;;
69608;Laerm;57251;52.248;4.812;2023-04-25T00:10:15;35.54;33.39;38.72;;
69608;Laerm;57251;52.248;4.812;2023-04-25T00:10:26;37.34;34.26;45.15;;
69608;Laerm;57251;52.248;4.812;2023-04-25T00:10:36;37.29;34.99;45.66;;
69608;Laerm;57251;52.248;4.812;2023-04-25T00:10:46;38.66;34.59;44.65;;
69608;Laerm;57251;52.248;4.812;2023-04-25T00:10:58;39.48;36.13;45.53;;
69608;Laerm;57251;52.248;4.812;2023-04-25T00:11:09;37.67;34.85;43.07;;
69608;Laerm;57251;52.248;4.812;2023-04-25T00:11:19;39.69;35.55;46.82;;
69608;Laerm;57251;52.248;4.812;2023-04-25T00:11:29;38.95;36.05;42.32;;
69608;Laerm;57251;52.248;4.812;2023-04-25T00:11:41;38.49;35.07;41.79;;
69608;Laerm;57251;52.248;4.812;2023-04-25T00:11:51;37.68;34.84;42.77;;
69608;Laerm;57251;52.248;4.812;2023-04-25T00:12:01;37.22;34.66;41.50;;
69608;Laerm;57251;52.248;4.812;2023-04-25T00:12:11;40.12;34.32;53.23;;
69608;Laerm;57251;52.248;4.812;2023-04-25T00:12:21;35.69;33.33;40.49;;
69608;Laerm;57251;52.248;4.812;2023-04-25T00:12:32;36.61;34.29;40.66;;
69608;Laerm;57251;52.248;4.812;2023-04-25T00:12:43;35.47;32.99;37.22;;
69608;Laerm;57251;52.248;4.812;2023-04-25T00:12:53;35.31;33.41;37.06;;
69608;Laerm;57251;52.248;4.812;2023-04-25T00:13:03;35.56;33.05;38.26;;
69608;Laerm;57251;52.248;4.812;2023-04-25T00:13:14;34.81;33.10;37.01;;
69608;Laerm;57251;52.248;4.812;2023-04-25T00:13:25;35.34;33.12;37.97;;
69608;Laerm;57251;52.248;4.812;2023-04-25T00:13:35;35.39;33.84;37.19;;
69608;Laerm;57251;52.248;4.812;2023-04-25T00:13:45;35.59;33.39;37.86;;
69608;Laerm;57251;52.248;4.812;2023-04-25T00:13:56;34.87;33.58;36.61;;
69608;Laerm;57251;52.248;4.812;2023-04-25T00:14:07;35.60;33.74;38.46;;
69608;Laerm;57251;52.248;4.812;2023-04-25T00:14:17;36.13;33.74;44.03;;
69608;Laerm;57251;52.248;4.812;2023-04-25T00:14:28;35.77;33.71;38.38;;
69608;Laerm;57251;52.248;4.812;2023-04-25T00:14:38;35.80;33.10;39.77;;
69608;Laerm;57251;52.248;4.812;2023-04-25T00:14:49;34.88;32.72;38.32;;
69608;Laerm;57251;52.248;4.812;2023-04-25T00:15:03;34.17;32.42;35.75;;
69608;Laerm;57251;52.248;4.812;2023-04-25T00:15:13;34.23;32.62;37.33;;
69608;Laerm;57251;52.248;4.812;2023-04-25T00:15:23;34.20;32.55;35.90;;
69608;Laerm;57251;52.248;4.812;2023-04-25T00:15:34;34.24;32.64;35.88;;
69608;Laerm;57251;52.248;4.812;2023-04-25T00:15:46;34.38;32.89;36.36;;
69608;Laerm;57251;52.248;4.812;2023-04-25T00:15:56;34.77;32.82;38.17;;
69608;Laerm;57251;52.248;4.812;2023-04-25T00:16:06;34.29;32.31;41.60;;
69608;Laerm;57251;52.248;4.812;2023-04-25T00:16:16;34.59;33.01;40.18;;
69608;Laerm;57251;52.248;4.812;2023-04-25T00:16:32;34.04;32.57;36.26;;
69608;Laerm;57251;52.248;4.812;2023-04-25T00:16:44;34.18;32.38;35.82;;
69608;Laerm;57251;52.248;4.812;2023-04-25T00:17:13;34.27;32.31;36.48;;
69608;Laerm;57251;52.248;4.812;2023-04-25T00:17:23;35.32;32.98;40.52;;
69608;Laerm;57251;52.248;4.812;2023-04-25T00:17:34;35.37;33.38;37.77;;
69608;Laerm;57251;52.248;4.812;2023-04-25T00:17:45;35.10;33.14;36.97;;
69608;Laerm;57251;52.248;4.812;2023-04-25T00:17:56;35.45;33.48;39.24;;
69608;Laerm;57251;52.248;4.812;2023-04-25T00:18:06;35.32;33.52;38.01;;
69608;Laerm;57251;52.248;4.812;2023-04-25T00:18:17;34.98;32.88;37.59;;
69608;Laerm;57251;52.248;4.812;2023-04-25T00:18:27;34.89;32.86;39.08;;
69608;Laerm;57251;52.248;4.812;2023-04-25T00:18:39;36.33;32.64;43.22;;
69608;Laerm;57251;52.248;4.812;2023-04-25T00:18:49;34.49;32.91;37.63;;
69608;Laerm;57251;52.248;4.812;2023-04-25T00:19:03;34.94;32.95;37.18;;
69608;Laerm;57251;52.248;4.812;2023-04-25T00:19:14;34.39;32.50;37.20;;
69608;Laerm;57251;52.248;4.812;2023-04-25T00:19:24;34.40;32.77;36.70;;
69608;Laerm;57251;52.248;4.812;2023-04-25T00:19:34;33.91;32.53;35.43;;
69608;Laerm;57251;52.248;4.812;2023-04-25T00:19:44;35.76;32.02;45.05;;
69608;Laerm;57251;52.248;4.812;2023-04-25T00:19:56;34.76;32.85;37.90;;
69608;Laerm;57251;52.248;4.812;2023-04-25T00:20:08;35.19;32.74;37.23;;
69608;Laerm;57251;52.248;4.812;2023-04-25T00:20:19;35.66;32.95;39.45;;
69608;Laerm;57251;52.248;4.812;2023-04-25T00:20:29;35.18;33.39;40.10;;
69608;Laerm;57251;52.248;4.812;2023-04-25T00:20:40;35.23;32.99;38.00;;
69608;Laerm;57251;52.248;4.812;2023-04-25T00:20:50;35.82;34.20;38.12;;
69608;Laerm;57251;52.248;4.812;2023-04-25T00:21:00;36.01;33.57;39.83;;
69608;Laerm;57251;52.248;4.812;2023-04-25T00:21:10;35.85;33.82;39.68;;
69608;Laerm;57251;52.248;4.812;2023-04-25T00:21:21;37.39;33.65;40.98;;
69608;Laerm;57251;52.248;4.812;2023-04-25T00:21:34;34.70;33.02;36.50;;
69608;Laerm;57251;52.248;4.812;2023-04-25T00:21:45;34.42;32.26;36.51;;
69608;Laerm;57251;52.248;4.812;2023-04-25T00:21:56;34.36;32.85;35.96;;
69608;Laerm;57251;52.248;4.812;2023-04-25T00:22:06;34.29;32.73;36.39;;
69608;Laerm;57251;52.248;4.812;2023-04-25T00:22:17;34.47;32.69;36.48;;
69608;Laerm;57251;52.248;4.812;2023-04-25T00:22:27;33.90;32.05;36.40;;
69608;Laerm;57251;52.248;4.812;2023-04-25T00:22:37;34.02;32.33;35.70;;
69608;Laerm;57251;52.248;4.812;2023-04-25T00:22:48;35.69;33.24;39.07;;
69608;Laerm;57251;52.248;4.812;2023-04-25T00:22:58;35.98;33.84;38.76;;
69608;Laerm;57251;52.248;4.812;2023-04-25T00:23:08;35.02;33.13;37.59;;
69608;Laerm;57251;52.248;4.812;2023-04-25T00:23:18;34.76;32.87;37.55;;
69608;Laerm;57251;52.248;4.812;2023-04-25T00:23:29;34.73;32.97;36.75;;
69608;Laerm;57251;52.248;4.812;2023-04-25T00:23:39;34.94;33.40;41.38;;
69608;Laerm;57251;52.248;4.812;2023-04-25T00:23:50;34.93;33.13;36.40;;
69608;Laerm;57251;52.248;4.812;2023-04-25T00:24:00;35.22;33.38;37.92;;
69608;Laerm;57251;52.248;4.812;2023-04-25T00:24:10;34.53;32.39;36.30;;
69608;Laerm;57251;52.248;4.812;2023-04-25T00:24:20;34.91;33.19;37.47;;
69608;Laerm;57251;52.248;4.812;2023-04-25T00:24:31;35.59;32.78;39.00;;
69608;Laerm;57251;52.248;4.812;2023-04-25T00:24:41;35.77;33.30;39.35;;
69608;Laerm;57251;52.248;4.812;2023-04-25T00:24:51;36.55;33.77;40.10;;
69608;Laerm;57251;52.248;4.812;2023-04-25T00:25:04;35.72;32.69;47.59;;
69608;Laerm;57251;52.248;4.812;2023-04-25T00:25:14;34.26;32.35;38.16;;
69608;Laerm;57251;52.248;4.812;2023-04-25T00:25:25;37.87;32.84;56.98;;
69608;Laerm;57251;52.248;4.812;2023-04-25T00:25:35;35.84;32.58;50.54;;
69608;Laerm;57251;52.248;4.812;2023-04-25T00:25:45;34.39;32.68;36.17;;
69608;Laerm;57251;52.248;4.812;2023-04-25T00:25:59;38.00;32.88;40.54;;
69608;Laerm;57251;52.248;4.812;2023-04-25T00:26:09;38.03;36.36;40.00;;
69608;Laerm;57251;52.248;4.812;2023-04-25T00:26:19;37.99;36.91;39.77;;
69608;Laerm;57251;52.248;4.812;2023-04-25T00:26:30;39.21;36.99;40.60;;
69608;Laerm;57251;52.248;4.812;2023-04-25T00:26:41;39.21;37.12;42.10;;
69608;Laerm;57251;52.248;4.812;2023-04-25T00:26:51;38.31;36.23;42.88;;
69608;Laerm;57251;52.248;4.812;2023-04-25T00:27:01;38.38;36.21;42.29;;
69608;Laerm;57251;52.248;4.812;2023-04-25T00:27:11;39.69;36.34;42.91;;
69608;Laerm;57251;52.248;4.812;2023-04-25T00:27:22;35.61;33.14;39.28;;
69608;Laerm;57251;52.248;4.812;2023-04-25T00:27:32;34.68;33.02;38.35;;
69608;Laerm;57251;52.248;4.812;2023-04-25T00:27:43;34.08;32.55;42.54;;
69608;Laerm;57251;52.248;4.812;2023-04-25T00:27:53;34.35;32.43;36.08;;
69608;Laerm;57251;52.248;4.812;2023-04-25T00:28:03;33.75;31.93;35.89;;
69608;Laerm;57251;52.248;4.812;2023-04-25T00:28:13;34.15;32.54;35.80;;
69608;Laerm;57251;52.248;4.812;2023-04-25T00:28:24;34.04;32.39;36.21;;
69608;Laerm;57251;52.248;4.812;2023-04-25T00:28:34;34.60;32.87;36.42;;
69608;Laerm;57251;52.248;4.812;2023-04-25T00:28:44;34.03;32.52;36.33;;
69608;Laerm;57251;52.248;4.812;2023-04-25T00:28:55;34.10;32.65;37.61;;
69608;Laerm;57251;52.248;4.812;2023-04-25T00:29:05;34.00;32.28;36.02;;
69608;Laerm;57251;52.248;4.812;2023-04-25T00:29:16;33.99;32.67;37.24;;
69608;Laerm;57251;52.248;4.812;2023-04-25T00:29:26;34.38;32.55;35.85;;
69608;Laerm;57251;52.248;4.812;2023-04-25T00:29:36;35.17;32.77;40.96;;
69608;Laerm;57251;52.248;4.812;2023-04-25T00:29:46;34.83;32.98;36.56;;
69608;Laerm;57251;52.248;4.812;2023-04-25T00:29:57;34.61;32.82;36.89;;
69608;Laerm;57251;52.248;4.812;2023-04-25T00:30:07;34.67;32.18;41.61;;
69608;Laerm;57251;52.248;4.812;2023-04-25T00:30:17;35.81;33.15;42.24;;
69608;Laerm;57251;52.248;4.812;2023-04-25T00:30:28;34.55;32.75;36.53;;
69608;Laerm;57251;52.248;4.812;2023-04-25T00:30:38;35.15;32.49;37.35;;
69608;Laerm;57251;52.248;4.812;2023-04-25T00:30:49;35.24;33.13;36.82;;
69608;Laerm;57251;52.248;4.812;2023-04-25T00:31:00;34.56;33.07;37.23;;
69608;Laerm;57251;52.248;4.812;2023-04-25T00:31:10;37.07;33.34;42.73;;
69608;Laerm;57251;52.248;4.812;2023-04-25T00:31:20;35.44;33.04;39.24;;
69608;Laerm;57251;52.248;4.812;2023-04-25T00:31:31;36.55;33.80;41.32;;
69608;Laerm;57251;52.248;4.812;2023-04-25T00:31:41;38.36;34.47;46.81;;
69608;Laerm;57251;52.248;4.812;2023-04-25T00:31:51;38.87;35.30;45.50;;
69608;Laerm;57251;52.248;4.812;2023-04-25T00:32:01;36.82;33.77;41.73;;
69608;Laerm;57251;52.248;4.812;2023-04-25T00:32:12;36.81;33.70;43.75;;
69608;Laerm;57251;52.248;4.812;2023-04-25T00:32:22;37.29;34.63;40.53;;
69608;Laerm;57251;52.248;4.812;2023-04-25T00:32:32;36.16;34.31;38.24;;
69608;Laerm;57251;52.248;4.812;2023-04-25T00:32:43;35.90;34.09;39.31;;
69608;Laerm;57251;52.248;4.812;2023-04-25T00:32:53;35.01;32.89;37.36;;
69608;Laerm;57251;52.248;4.812;2023-04-25T00:33:03;34.02;32.66;35.71;;
69608;Laerm;57251;52.248;4.812;2023-04-25T00:33:14;34.16;32.73;37.37;;
69608;Laerm;57251;52.248;4.812;2023-04-25T00:33:24;34.01;32.11;42.10;;
69608;Laerm;57251;52.248;4.812;2023-04-25T00:33:34;33.66;32.06;36.13;;
69608;Laerm;57251;52.248;4.812;2023-04-25T00:33:45;34.05;31.96;36.27;;
69608;Laerm;57251;52.248;4.812;2023-04-25T00:33:55;33.62;32.06;35.87;;
69608;Laerm;57251;52.248;4.812;2023-04-25T00:34:06;33.56;31.77;35.38;;
69608;Laerm;57251;52.248;4.812;2023-04-25T00:34:16;33.63;31.69;35.87;;
69608;Laerm;57251;52.248;4.812;2023-04-25T00:34:26;33.45;31.80;35.77;;
69608;Laerm;57251;52.248;4.812;2023-04-25T00:34:37;33.54;31.63;36.05;;
69608;Laerm;57251;52.248;4.812;2023-04-25T00:34:47;33.53;31.43;36.57;;
69608;Laerm;57251;52.248;4.812;2023-04-25T00:34:57;33.75;31.82;40.09;;
69608;Laerm;57251;52.248;4.812;2023-04-25T00:35:08;33.56;31.67;40.61;;
69608;Laerm;57251;52.248;4.812;2023-04-25T00:35:19;33.71;31.60;35.37;;
69608;Laerm;57251;52.248;4.812;2023-04-25T00:35:29;34.30;32.68;36.25;;
69608;Laerm;57251;52.248;4.812;2023-04-25T00:35:40;34.27;32.61;36.14;;
69608;Laerm;57251;52.248;4.812;2023-04-25T00:35:50;34.88;32.43;39.37;;
69608;Laerm;57251;52.248;4.812;2023-04-25T00:36:00;35.29;32.93;40.03;;
69608;Laerm;57251;52.248;4.812;2023-04-25T00:36:11;34.66;32.86;38.20;;
69608;Laerm;57251;52.248;4.812;2023-04-25T00:36:21;35.11;33.12;38.78;;
69608;Laerm;57251;52.248;4.812;2023-04-25T00:36:31;36.23;33.37;39.56;;
69608;Laerm;57251;52.248;4.812;2023-04-25T00:36:42;36.47;33.72;42.24;;
69608;Laerm;57251;52.248;4.812;2023-04-25T00:36:52;36.68;33.18;40.58;;
69608;Laerm;57251;52.248;4.812;2023-04-25T00:37:02;36.43;33.60;40.72;;
69608;Laerm;57251;52.248;4.812;2023-04-25T00:37:12;36.51;32.43;39.92;;
69608;Laerm;57251;52.248;4.812;2023-04-25T00:37:23;36.72;33.72;40.18;;
69608;Laerm;57251;52.248;4.812;2023-04-25T00:37:33;35.85;32.96;39.60;;
69608;Laerm;57251;52.248;4.812;2023-04-25T00:37:43;35.89;32.85;43.15;;
69608;Laerm;57251;52.248;4.812;2023-04-25T00:37:54;34.93;32.80;39.12;;
69608;Laerm;57251;52.248;4.812;2023-04-25T00:38:05;34.42;32.54;36.63;;
69608;Laerm;57251;52.248;4.812;2023-04-25T00:38:15;34.61;31.98;37.03;;
69608;Laerm;57251;52.248;4.812;2023-04-25T00:38:25;34.31;32.63;37.42;;
69608;Laerm;57251;52.248;4.812;2023-04-25T00:38:36;34.30;32.00;36.92;;
69608;Laerm;57251;52.248;4.812;2023-04-25T00:38:47;34.73;32.74;38.74;;
69608;Laerm;57251;52.248;4.812;2023-04-25T00:38:57;34.36;32.07;36.22;;
69608;Laerm;57251;52.248;4.812;2023-04-25T00:39:07;34.63;32.49;41.32;;
69608;Laerm;57251;52.248;4.812;2023-04-25T00:39:18;34.28;32.38;39.38;;
69608;Laerm;57251;52.248;4.812;2023-04-25T00:39:28;34.05;32.08;36.71;;
69608;Laerm;57251;52.248;4.812;2023-04-25T00:39:38;35.79;32.97;41.05;;
69608;Laerm;57251;52.248;4.812;2023-04-25T00:39:49;47.11;37.91;53.60;;
69608;Laerm;57251;52.248;4.812;2023-04-25T00:39:59;56.80;41.47;64.77;;
69608;Laerm;57251;52.248;4.812;2023-04-25T00:40:09;37.00;31.73;42.65;;
69608;Laerm;57251;52.248;4.812;2023-04-25T00:40:20;34.20;31.99;38.28;;
69608;Laerm;57251;52.248;4.812;2023-04-25T00:40:30;34.37;32.60;40.59;;
69608;Laerm;57251;52.248;4.812;2023-04-25T00:40:41;34.04;32.35;37.25;;
69608;Laerm;57251;52.248;4.812;2023-04-25T00:40:53;34.07;31.83;36.43;;
69608;Laerm;57251;52.248;4.812;2023-04-25T00:41:06;36.08;32.27;43.69;;
69608;Laerm;57251;52.248;4.812;2023-04-25T00:41:16;53.74;32.52;64.86;;
69608;Laerm;57251;52.248;4.812;2023-04-25T00:41:26;55.61;44.84;65.94;;
69608;Laerm;57251;52.248;4.812;2023-04-25T00:41:37;40.44;33.02;50.20;;
69608;Laerm;57251;52.248;4.812;2023-04-25T00:41:47;36.23;33.24;38.81;;
69608;Laerm;57251;52.248;4.812;2023-04-25T00:41:58;34.91;32.80;37.15;;
69608;Laerm;57251;52.248;4.812;2023-04-25T00:42:08;35.03;32.94;37.88;;
69608;Laerm;57251;52.248;4.812;2023-04-25T00:42:18;34.94;32.90;36.94;;
69608;Laerm;57251;52.248;4.812;2023-04-25T00:42:29;34.53;32.92;35.94;;
69608;Laerm;57251;52.248;4.812;2023-04-25T00:42:40;34.70;32.87;36.79;;
69608;Laerm;57251;52.248;4.812;2023-04-25T00:42:51;34.00;31.54;35.63;;
69608;Laerm;57251;52.248;4.812;2023-04-25T00:43:02;34.18;32.85;35.80;;
69608;Laerm;57251;52.248;4.812;2023-04-25T00:43:12;34.19;32.74;35.98;;
69608;Laerm;57251;52.248;4.812;2023-04-25T00:43:23;34.73;33.07;37.60;;
69608;Laerm;57251;52.248;4.812;2023-04-25T00:43:35;34.03;32.28;36.06;;
69608;Laerm;57251;52.248;4.812;2023-04-25T00:43:46;33.94;32.31;35.73;;
69608;Laerm;57251;52.248;4.812;2023-04-25T00:43:57;34.38;32.38;36.99;;
69608;Laerm;57251;52.248;4.812;2023-04-25T00:44:09;33.70;32.04;35.87;;
69608;Laerm;57251;52.248;4.812;2023-04-25T00:44:21;33.71;32.07;36.76;;
69608;Laerm;57251;52.248;4.812;2023-04-25T00:44:32;33.58;31.78;35.68;;
69608;Laerm;57251;52.248;4.812;2023-04-25T00:44:43;33.69;32.10;37.43;;
69608;Laerm;57251;52.248;4.812;2023-04-25T00:44:53;33.55;31.22;35.85;;
69608;Laerm;57251;52.248;4.812;2023-04-25T00:45:05;36.08;33.15;40.96;;
69608;Laerm;57251;52.248;4.812;2023-04-25T00:45:16;36.36;34.00;39.72;;
69608;Laerm;57251;52.248;4.812;2023-04-25T00:45:28;34.72;32.39;38.60;;
69608;Laerm;57251;52.248;4.812;2023-04-25T00:45:39;34.19;31.91;35.87;;
69608;Laerm;57251;52.248;4.812;2023-04-25T00:45:50;34.74;32.85;42.25;;
69608;Laerm;57251;52.248;4.812;2023-04-25T00:46:00;35.25;32.80;37.15;;
69608;Laerm;57251;52.248;4.812;2023-04-25T00:46:11;34.74;33.20;36.29;;
69608;Laerm;57251;52.248;4.812;2023-04-25T00:46:21;34.82;33.02;36.86;;
69608;Laerm;57251;52.248;4.812;2023-04-25T00:46:31;34.56;32.71;38.26;;
69608;Laerm;57251;52.248;4.812;2023-04-25T00:46:42;34.57;32.84;36.22;;
69608;Laerm;57251;52.248;4.812;2023-04-25T00:46:53;34.30;32.66;35.95;;
69608;Laerm;57251;52.248;4.812;2023-04-25T00:47:03;34.58;32.89;36.54;;
69608;Laerm;57251;52.248;4.812;2023-04-25T00:47:14;35.15;33.00;37.56;;
69608;Laerm;57251;52.248;4.812;2023-04-25T00:47:25;35.29;33.38;39.88;;
69608;Laerm;57251;52.248;4.812;2023-04-25T00:47:35;34.96;33.00;37.58;;
69608;Laerm;57251;52.248;4.812;2023-04-25T00:47:46;36.11;33.81;39.59;;
69608;Laerm;57251;52.248;4.812;2023-04-25T00:47:57;36.08;33.53;39.51;;
69608;Laerm;57251;52.248;4.812;2023-04-25T00:48:07;35.40;33.70;39.18;;
69608;Laerm;57251;52.248;4.812;2023-04-25T00:48:18;36.16;33.71;40.10;;
69608;Laerm;57251;52.248;4.812;2023-04-25T00:48:28;35.14;33.00;37.87;;
69608;Laerm;57251;52.248;4.812;2023-04-25T00:48:38;35.19;33.33;37.14;;
69608;Laerm;57251;52.248;4.812;2023-04-25T00:48:49;34.88;32.96;37.26;;
69608;Laerm;57251;52.248;4.812;2023-04-25T00:48:59;34.24;32.32;36.31;;
69608;Laerm;57251;52.248;4.812;2023-04-25T00:49:09;34.16;32.71;35.62;;
69608;Laerm;57251;52.248;4.812;2023-04-25T00:49:25;34.39;32.38;36.96;;
69608;Laerm;57251;52.248;4.812;2023-04-25T00:49:35;35.21;33.08;40.87;;
69608;Laerm;57251;52.248;4.812;2023-04-25T00:49:45;34.95;32.99;36.77;;
69608;Laerm;57251;52.248;4.812;2023-04-25T00:49:55;34.82;32.97;37.35;;
69608;Laerm;57251;52.248;4.812;2023-04-25T00:50:06;34.49;32.92;36.62;;
69608;Laerm;57251;52.248;4.812;2023-04-25T00:50:16;34.75;32.84;36.63;;
69608;Laerm;57251;52.248;4.812;2023-04-25T00:50:27;34.26;32.43;35.99;;
69608;Laerm;57251;52.248;4.812;2023-04-25T00:50:37;34.69;32.99;36.40;;
69608;Laerm;57251;52.248;4.812;2023-04-25T00:50:54;35.22;33.45;42.68;;
69608;Laerm;57251;52.248;4.812;2023-04-25T00:51:04;35.49;33.08;39.10;;
69608;Laerm;57251;52.248;4.812;2023-04-25T00:51:16;35.31;33.47;37.36;;
69608;Laerm;57251;52.248;4.812;2023-04-25T00:51:26;35.14;33.19;37.26;;
69608;Laerm;57251;52.248;4.812;2023-04-25T00:51:36;35.60;33.13;41.14;;
69608;Laerm;57251;52.248;4.812;2023-04-25T00:51:47;35.61;33.24;40.10;;
69608;Laerm;57251;52.248;4.812;2023-04-25T00:51:58;35.63;33.67;39.59;;
69608;Laerm;57251;52.248;4.812;2023-04-25T00:52:08;35.18;33.44;37.15;;
69608;Laerm;57251;52.248;4.812;2023-04-25T00:52:18;35.05;33.09;36.60;;
69608;Laerm;57251;52.248;4.812;2023-04-25T00:52:29;35.22;33.47;37.24;;
69608;Laerm;57251;52.248;4.812;2023-04-25T00:52:40;35.85;33.78;38.02;;
69608;Laerm;57251;52.248;4.812;2023-04-25T00:52:50;36.33;34.49;38.61;;
69608;Laerm;57251;52.248;4.812;2023-04-25T00:53:01;36.28;34.24;38.70;;
69608;Laerm;57251;52.248;4.812;2023-04-25T00:53:11;36.67;34.18;39.07;;
69608;Laerm;57251;52.248;4.812;2023-04-25T00:53:22;37.00;34.42;39.71;;
69608;Laerm;57251;52.248;4.812;2023-04-25T00:53:33;37.71;35.29;42.62;;
69608;Laerm;57251;52.248;4.812;2023-04-25T00:53:44;38.74;34.97;43.57;;
69608;Laerm;57251;52.248;4.812;2023-04-25T00:53:55;36.69;34.09;40.26;;
69608;Laerm;57251;52.248;4.812;2023-04-25T00:54:05;36.49;33.81;38.90;;
69608;Laerm;57251;52.248;4.812;2023-04-25T00:54:15;34.77;32.53;36.53;;
69608;Laerm;57251;52.248;4.812;2023-04-25T00:54:26;35.00;33.15;37.09;;
69608;Laerm;57251;52.248;4.812;2023-04-25T00:54:36;34.81;33.17;36.70;;
69608;Laerm;57251;52.248;4.812;2023-04-25T00:54:46;35.64;33.12;38.41;;
69608;Laerm;57251;52.248;4.812;2023-04-25T00:54:57;34.71;32.57;40.89;;
69608;Laerm;57251;52.248;4.812;2023-04-25T00:55:07;34.34;32.66;35.69;;
69608;Laerm;57251;52.248;4.812;2023-04-25T00:55:18;34.34;32.82;35.90;;
69608;Laerm;57251;52.248;4.812;2023-04-25T00:55:28;34.48;32.86;36.01;;
69608;Laerm;57251;52.248;4.812;2023-04-25T00:55:38;34.51;32.89;39.64;;
69608;Laerm;57251;52.248;4.812;2023-04-25T00:55:49;35.17;33.11;37.39;;
69608;Laerm;57251;52.248;4.812;2023-04-25T00:56:02;35.43;33.38;38.37;;
69608;Laerm;57251;52.248;4.812;2023-04-25T00:56:13;34.71;33.00;36.61;;
69608;Laerm;57251;52.248;4.812;2023-04-25T00:56:23;36.09;33.34;38.67;;
69608;Laerm;57251;52.248;4.812;2023-04-25T00:56:33;35.30;33.31;37.36;;
69608;Laerm;57251;52.248;4.812;2023-04-25T00:56:44;35.28;33.40;36.69;;
69608;Laerm;57251;52.248;4.812;2023-04-25T00:56:55;35.22;32.67;37.89;;
69608;Laerm;57251;52.248;4.812;2023-04-25T00:57:05;34.80;32.68;36.38;;
69608;Laerm;57251;52.248;4.812;2023-04-25T00:57:15;35.00;32.83;36.70;;
69608;Laerm;57251;52.248;4.812;2023-04-25T00:57:26;34.98;33.52;37.55;;
69608;Laerm;57251;52.248;4.812;2023-04-25T00:57:36;35.09;33.27;37.33;;
69608;Laerm;57251;52.248;4.812;2023-04-25T00:57:47;34.52;32.87;36.15;;
69608;Laerm;57251;52.248;4.812;2023-04-25T00:57:57;35.24;33.38;39.04;;
69608;Laerm;57251;52.248;4.812;2023-04-25T00:58:08;35.51;33.39;38.18;;
69608;Laerm;57251;52.248;4.812;2023-04-25T00:58:18;35.56;32.87;37.48;;
69608;Laerm;57251;52.248;4.812;2023-04-25T00:58:29;35.33;33.49;37.76;;
69608;Laerm;57251;52.248;4.812;2023-04-25T00:58:40;36.35;33.99;40.24;;
69608;Laerm;57251;52.248;4.812;2023-04-25T00:58:52;36.09;32.79;40.02;;
69608;Laerm;57251;52.248;4.812;2023-04-25T00:59:03;35.78;33.31;40.65;;
69608;Laerm;57251;52.248;4.812;2023-04-25T00:59:14;36.47;33.66;40.19;;
69608;Laerm;57251;52.248;4.812;2023-04-25T00:59:25;36.03;33.65;38.48;;
69608;Laerm;57251;52.248;4.812;2023-04-25T00:59:35;35.73;33.88;38.14;;
69608;Laerm;57251;52.248;4.812;2023-04-25T00:59:46;35.73;33.24;39.39;;
69608;Laerm;57251;52.248;4.812;2023-04-25T00:59:56;34.67;32.27;37.27;;